Time;durP1;ratioP1;P1;durP2;ratioP2;P2;SDS_P1;SDS_P2;PMS_P1;PMS_P2;Temp;Humidity;BMP_temperature;BMP_pressure;BME280_temperature;BME280_humidity;BME280_pressure;Samples;Min_cycle;Max_cycle;Signal;HPM_P1;HPM_P2
2023/12/12 00:00:03;;;;;;;3.83;2.90;;;;;;;1.75;100.00;98951.34;5091166;28;20200;-64
2023/12/12 00:02:31;;;;;;;4.70;2.33;;;;;;;1.74;100.00;98945.47;5091454;28;20688;-64
2023/12/12 00:04:59;;;;;;;4.90;2.67;;;;;;;1.81;100.00;98951.13;5091312;28;20198;-64
2023/12/12 00:07:26;;;;;;;4.90;2.80;;;;;;;1.83;100.00;98946.81;5091122;28;20209;-64
2023/12/12 00:09:52;;;;;;;3.77;2.80;;;;;;;1.85;100.00;98937.50;5091175;28;20210;-64
2023/12/12 00:12:20;;;;;;;5.17;3.10;;;;;;;1.85;100.00;98926.59;5091200;28;20602;-64
2023/12/12 00:14:47;;;;;;;3.10;2.27;;;;;;;1.87;100.00;98925.66;5091343;28;20297;-64
2023/12/12 00:17:13;;;;;;;5.07;2.53;;;;;;;1.94;100.00;98906.88;5090972;28;20233;-64
2023/12/12 00:19:45;;;;;;;3.03;2.23;;;;;;;1.74;100.00;98905.16;5090832;28;20585;-64
2023/12/12 00:22:12;;;;;;;2.67;2.17;;;;;;;1.72;100.00;98906.09;5090873;28;20202;-64
2023/12/12 00:24:39;;;;;;;3.90;2.67;;;;;;;1.73;100.00;98910.25;5090754;28;20198;-64
2023/12/12 00:27:04;;;;;;;4.20;2.70;;;;;;;1.67;100.00;98928.13;5090828;28;20591;-64
2023/12/12 00:29:31;;;;;;;11.57;2.13;;;;;;;1.68;100.00;98932.28;5090483;28;20202;-64
2023/12/12 00:31:58;;;;;;;4.37;2.50;;;;;;;1.71;100.00;98939.72;5090638;28;20253;-64
2023/12/12 00:34:25;;;;;;;3.70;2.53;;;;;;;1.64;100.00;98949.22;5090371;28;20201;-64
2023/12/12 00:36:53;;;;;;;3.47;2.93;;;;;;;1.67;100.00;98943.25;5090158;28;20694;-64
2023/12/12 00:39:20;;;;;;;3.20;2.47;;;;;;;1.79;100.00;98940.25;5090466;28;20209;-64
2023/12/12 00:41:48;;;;;;;2.90;2.43;;;;;;;1.83;100.00;98938.44;5090661;28;20259;-64
2023/12/12 00:44:15;;;;;;;2.17;2.00;;;;;;;1.82;100.00;98957.78;5090782;28;20202;-64
2023/12/12 00:46:42;;;;;;;6.47;2.67;;;;;;;1.74;100.00;98959.78;5090274;28;20595;-64
2023/12/12 00:49:09;;;;;;;4.77;2.67;;;;;;;1.75;100.00;98956.41;5090217;28;20740;-64
2023/12/12 00:51:36;;;;;;;5.13;2.60;;;;;;;1.72;100.00;98952.28;5090571;28;20198;-64
2023/12/12 00:54:04;;;;;;;5.17;2.70;;;;;;;1.68;100.00;98960.81;5090335;28;20292;-64
2023/12/12 00:56:31;;;;;;;4.40;2.37;;;;;;;1.61;100.00;98968.69;5090003;28;20718;-64
2023/12/12 00:58:58;;;;;;;8.43;2.20;;;;;;;1.63;100.00;98961.88;5090313;28;20534;-64
2023/12/12 01:01:25;;;;;;;3.47;2.27;;;;;;;1.66;100.00;98969.31;5090327;28;20205;-64
2023/12/12 01:03:51;;;;;;;6.97;3.73;;;;;;;1.72;100.00;98967.41;5090163;28;20198;-64
2023/12/12 01:06:25;;;;;;;5.77;2.63;;;;;;;1.59;100.00;98982.16;5090158;28;20239;-64
2023/12/12 01:08:52;;;;;;;6.13;2.77;;;;;;;1.44;100.00;99007.91;5089992;28;20202;-64
2023/12/12 01:11:20;;;;;;;8.43;2.90;;;;;;;1.35;100.00;99073.75;5089774;28;20635;-64
2023/12/12 01:13:48;;;;;;;2.97;2.10;;;;;;;1.25;100.00;99012.81;5089821;28;20206;-64
2023/12/12 01:16:14;;;;;;;7.63;2.70;;;;;;;1.15;100.00;99061.84;5089854;28;20288;-64
2023/12/12 01:18:41;;;;;;;3.73;1.87;;;;;;;0.93;100.00;99061.72;5089684;28;20705;-64
2023/12/12 01:21:08;;;;;;;3.37;1.87;;;;;;;1.00;100.00;99043.03;5089779;28;20588;-64
2023/12/12 01:23:48;;;;;;;8.37;2.50;;;;;;;0.86;100.00;99025.06;5089614;28;20198;-64
2023/12/12 01:26:15;;;;;;;1.97;1.87;;;;;;;1.01;100.00;99028.75;5089441;28;20222;-64
2023/12/12 01:28:43;;;;;;;1.50;1.40;;;;;;;0.80;100.00;99018.53;5089578;28;20209;-64
2023/12/12 01:31:10;;;;;;;3.17;2.23;;;;;;;0.84;100.00;99031.84;5089525;28;20202;-63
2023/12/12 01:33:37;;;;;;;4.50;2.03;;;;;;;0.93;100.00;99029.00;5089523;28;20198;-64
2023/12/12 01:36:04;;;;;;;5.90;2.47;;;;;;;0.93;100.00;99031.53;5089361;28;20216;-64
2023/12/12 01:38:31;;;;;;;4.17;1.53;;;;;;;1.07;100.00;99004.19;5089425;28;20233;-64
2023/12/12 01:40:58;;;;;;;6.43;2.40;;;;;;;1.11;100.00;99000.69;5089392;28;20202;-64
2023/12/12 01:43:25;;;;;;;2.97;2.40;;;;;;;1.22;100.00;98985.22;5089309;28;20675;-64
2023/12/12 01:45:56;;;;;;;4.03;2.97;;;;;;;1.16;100.00;98967.78;5089424;28;20234;-64
2023/12/12 01:48:23;;;;;;;4.20;1.93;;;;;;;1.10;100.00;98958.75;5088737;28;20201;-64
2023/12/12 01:50:50;;;;;;;7.13;2.37;;;;;;;1.10;100.00;98948.69;5089200;28;20202;-64
2023/12/12 01:53:19;;;;;;;3.83;1.90;;;;;;;1.22;100.00;98942.41;5089317;28;20209;-64
2023/12/12 01:55:46;;;;;;;1.67;1.57;;;;;;;1.18;100.00;98935.00;5089104;28;20259;-64
2023/12/12 01:58:13;;;;;;;2.87;2.67;;;;;;;1.19;100.00;98926.56;5089192;28;20577;-64
2023/12/12 02:00:40;;;;;;;1.63;1.53;;;;;;;1.08;100.00;98927.78;5089282;28;20209;-64
2023/12/12 02:03:09;;;;;;;1.57;1.47;;;;;;;0.98;100.00;98915.59;5089161;28;20205;-64
2023/12/12 02:05:38;;;;;;;3.13;2.27;;;;;;;0.65;100.00;98896.59;5088882;28;20205;-64
2023/12/12 02:08:05;;;;;;;1.47;1.37;;;;;;;0.93;100.00;98888.06;5088586;28;21004;-63
2023/12/12 02:10:32;;;;;;;2.83;1.83;;;;;;;0.83;100.00;98889.28;5089017;28;20221;-64
2023/12/12 02:12:59;;;;;;;2.43;1.53;;;;;;;0.68;100.00;98896.47;5088965;28;20202;-64
2023/12/12 02:15:26;;;;;;;4.13;3.27;;;;;;;0.78;100.00;98881.06;5088684;28;20703;-64
2023/12/12 02:17:53;;;;;;;2.33;1.57;;;;;;;0.84;100.00;98875.81;5088862;28;20229;-64
2023/12/12 02:20:21;;;;;;;3.17;2.23;;;;;;;0.96;100.00;98875.38;5088500;28;20205;-64
2023/12/12 02:22:49;;;;;;;3.60;1.70;;;;;;;1.04;100.00;98880.13;5088652;28;20209;-64
2023/12/12 02:25:18;;;;;;;3.47;3.03;;;;;;;0.93;100.00;98879.69;5088724;28;20602;-64
2023/12/12 02:27:44;;;;;;;6.97;3.27;;;;;;;1.01;100.00;98878.53;5088683;28;20208;-64
2023/12/12 02:30:14;;;;;;;5.90;2.10;;;;;;;0.82;100.00;98877.56;5088491;28;20205;-64
2023/12/12 02:32:41;;;;;;;2.93;2.47;;;;;;;1.09;100.00;98886.63;5088836;28;20694;-64
2023/12/12 02:35:08;;;;;;;2.30;1.97;;;;;;;1.09;100.00;98876.56;5088538;28;20225;-64
2023/12/12 02:37:35;;;;;;;3.83;2.23;;;;;;;1.11;100.00;98889.91;5087611;28;20260;-64
2023/12/12 02:40:03;;;;;;;4.80;2.83;;;;;;;1.29;100.00;98887.59;5086720;28;20258;-64
2023/12/12 02:42:30;;;;;;;9.07;3.43;;;;;;;1.14;100.00;98891.50;5087522;28;20233;-64
2023/12/12 02:44:57;;;;;;;2.17;1.97;;;;;;;1.13;100.00;98902.44;5088840;28;20204;-64
2023/12/12 02:47:24;;;;;;;3.87;2.40;;;;;;;1.20;100.00;98898.00;5088592;28;20251;-64
2023/12/12 02:49:51;;;;;;;4.17;2.23;;;;;;;1.16;100.00;98896.47;5088243;28;20702;-64
2023/12/12 02:52:18;;;;;;;5.77;3.07;;;;;;;1.10;100.00;98898.31;5088292;28;20213;-64
2023/12/12 02:54:45;;;;;;;5.10;3.07;;;;;;;1.08;100.00;98887.50;5088200;28;20221;-64
2023/12/12 02:57:13;;;;;;;4.17;2.07;;;;;;;1.07;100.00;98888.38;5088286;28;20225;-64
2023/12/12 02:59:40;;;;;;;4.27;1.93;;;;;;;1.10;100.00;98893.28;5091565;28;20197;-64
2023/12/12 03:02:06;;;;;;;3.87;2.47;;;;;;;1.16;100.00;98891.44;5092405;28;20201;-64
2023/12/12 03:04:33;;;;;;;4.30;2.33;;;;;;;1.15;100.00;98894.84;5092254;28;20688;-64
2023/12/12 03:07:00;;;;;;;4.87;3.43;;;;;;;1.18;100.00;98894.72;5092122;28;20197;-64
2023/12/12 03:09:27;;;;;;;4.97;3.33;;;;;;;1.23;100.00;98896.19;5092124;28;20706;-64
2023/12/12 03:11:55;;;;;;;4.67;3.10;;;;;;;1.31;100.00;98900.97;5092154;28;20672;-64
2023/12/12 03:14:28;;;;;;;5.27;2.37;;;;;;;1.39;100.00;98914.06;5092195;28;20205;-64
2023/12/12 03:16:55;;;;;;;5.57;3.30;;;;;;;1.56;100.00;98916.75;5092220;28;20194;-64
2023/12/12 03:19:22;;;;;;;4.77;2.03;;;;;;;1.54;100.00;98923.56;5092043;28;20198;-64
2023/12/12 03:21:49;;;;;;;3.63;2.50;;;;;;;1.56;100.00;98931.88;5091996;28;20671;-64
2023/12/12 03:24:17;;;;;;;7.37;4.50;;;;;;;1.58;100.00;98930.13;5091919;28;20210;-64
2023/12/12 03:26:43;;;;;;;3.10;2.87;;;;;;;1.57;100.00;98932.69;5092083;28;20202;-64
2023/12/12 03:29:10;;;;;;;3.20;2.47;;;;;;;1.53;100.00;98929.47;5091983;28;20194;-64
2023/12/12 03:31:40;;;;;;;2.57;2.37;;;;;;;1.50;100.00;98934.63;5091862;28;20217;-64
2023/12/12 03:34:07;;;;;;;10.00;4.23;;;;;;;1.61;100.00;98925.84;5091798;28;20291;-64
2023/12/12 03:36:35;;;;;;;4.67;3.13;;;;;;;1.68;100.00;98933.09;5091929;28;20224;-64
2023/12/12 03:39:01;;;;;;;3.03;2.70;;;;;;;1.70;100.00;98938.09;5091593;28;20236;-64
2023/12/12 03:41:29;;;;;;;4.07;3.67;;;;;;;1.78;100.00;98936.13;5092088;28;20253;-65
2023/12/12 03:43:56;;;;;;;4.50;2.77;;;;;;;1.69;100.00;98931.44;5091707;28;20202;-64
2023/12/12 03:46:23;;;;;;;5.70;2.70;;;;;;;1.74;100.00;98939.63;5091485;28;20705;-64
2023/12/12 03:48:51;;;;;;;6.20;3.07;;;;;;;1.78;100.00;98943.69;5091326;28;20197;-64
2023/12/12 03:51:17;;;;;;;4.80;4.07;;;;;;;1.73;100.00;98945.53;5091429;28;20697;-64
2023/12/12 03:53:44;;;;;;;5.03;3.27;;;;;;;1.78;100.00;98941.16;5091523;28;20205;-64
2023/12/12 03:56:11;;;;;;;13.10;4.53;;;;;;;1.76;100.00;98953.81;5091589;28;20205;-64
2023/12/12 03:58:38;;;;;;;4.63;3.07;;;;;;;1.81;100.00;98953.63;5091284;28;20651;-64
2023/12/12 04:01:06;;;;;;;10.37;4.50;;;;;;;1.78;100.00;98951.22;5091232;28;20217;-64
2023/12/12 04:03:33;;;;;;;3.67;2.57;;;;;;;1.72;100.00;98947.25;5091254;28;20648;-64
2023/12/12 04:06:03;;;;;;;11.57;5.50;;;;;;;1.80;100.00;98964.56;5091071;28;20206;-64
2023/12/12 04:08:30;;;;;;;9.70;4.03;;;;;;;1.85;100.00;98957.66;5091228;28;20291;-64
2023/12/12 04:10:57;;;;;;;5.97;3.63;;;;;;;1.86;100.00;98959.28;5090226;28;20198;-64
2023/12/12 04:13:24;;;;;;;7.53;3.73;;;;;;;1.89;100.00;98959.22;5090976;28;20201;-65
2023/12/12 04:15:50;;;;;;;8.20;3.57;;;;;;;1.94;100.00;98959.81;5091143;28;20597;-64
2023/12/12 04:18:17;;;;;;;5.20;3.30;;;;;;;1.95;100.00;98964.00;5090790;28;20619;-64
2023/12/12 04:20:44;;;;;;;8.67;4.80;;;;;;;1.96;100.00;98960.59;5091009;28;20194;-64
2023/12/12 04:23:12;;;;;;;7.57;3.80;;;;;;;2.00;100.00;98957.06;5090992;28;20202;-64
2023/12/12 04:25:39;;;;;;;3.33;3.00;;;;;;;1.95;100.00;98964.00;5090573;28;20225;-64
2023/12/12 04:28:08;;;;;;;4.73;3.93;;;;;;;1.99;100.00;98970.56;5090894;28;20194;-64
2023/12/12 04:30:34;;;;;;;10.83;5.47;;;;;;;2.00;100.00;98972.19;5090755;28;20634;-64
2023/12/12 04:33:01;;;;;;;13.87;4.10;;;;;;;2.02;100.00;98975.47;5090706;28;20479;-64
2023/12/12 04:35:28;;;;;;;11.00;4.43;;;;;;;1.96;100.00;98970.69;5090550;28;20210;-64
2023/12/12 04:37:55;;;;;;;11.00;6.13;;;;;;;1.95;100.00;98973.25;5090737;28;20226;-64
2023/12/12 04:40:27;;;;;;;13.37;6.30;;;;;;;2.07;100.00;98977.03;5090394;28;20213;-64
2023/12/12 04:42:53;;;;;;;7.70;4.77;;;;;;;2.04;100.00;98983.81;5090845;28;20197;-64
2023/12/12 04:45:20;;;;;;;7.93;4.30;;;;;;;2.03;100.00;98982.16;5090553;28;20212;-64
2023/12/12 04:47:47;;;;;;;10.67;6.07;;;;;;;1.90;100.00;98975.97;5090216;28;20723;-64
2023/12/12 04:50:14;;;;;;;13.33;5.77;;;;;;;1.64;100.00;98978.66;5090183;28;20209;-64
2023/12/12 04:52:41;;;;;;;8.80;4.20;;;;;;;1.64;100.00;98976.13;5090431;28;20562;-64
2023/12/12 04:55:08;;;;;;;6.23;4.53;;;;;;;1.75;100.00;98966.47;5090628;28;20193;-64
2023/12/12 04:57:36;;;;;;;5.27;3.33;;;;;;;1.88;100.00;98977.72;5090090;28;20622;-64
2023/12/12 05:00:04;;;;;;;4.17;3.50;;;;;;;1.97;100.00;98987.44;5090045;28;20200;-64
2023/12/12 05:02:37;;;;;;;8.43;4.70;;;;;;;1.98;100.00;98984.06;5090279;28;20776;-64
2023/12/12 05:05:04;;;;;;;17.50;4.07;;;;;;;1.84;100.00;98981.25;5090229;28;20205;-64
2023/12/12 05:07:31;;;;;;;9.00;5.20;;;;;;;1.90;100.00;98972.63;5090013;28;20221;-64
2023/12/12 05:09:58;;;;;;;6.80;4.03;;;;;;;1.69;100.00;98977.59;5090309;28;20589;-64
2023/12/12 05:12:25;;;;;;;9.13;4.33;;;;;;;1.80;100.00;98972.97;5090222;28;20201;-64
2023/12/12 05:14:53;;;;;;;8.77;5.23;;;;;;;1.90;100.00;98975.97;5089778;28;20397;-64
2023/12/12 05:17:20;;;;;;;9.00;6.20;;;;;;;1.97;100.00;98969.78;5090022;28;20194;-64
2023/12/12 05:19:46;;;;;;;7.50;5.83;;;;;;;1.68;100.00;98970.09;5090035;28;20210;-64
2023/12/12 05:22:13;;;;;;;5.73;4.13;;;;;;;1.81;100.00;98971.28;5089797;28;20198;-64
2023/12/12 05:24:40;;;;;;;9.47;4.13;;;;;;;1.96;100.00;98970.69;5089855;28;20223;-64
2023/12/12 05:27:07;;;;;;;7.53;4.93;;;;;;;2.02;100.00;98974.66;5089634;28;20194;-64
2023/12/12 05:29:34;;;;;;;8.50;5.63;;;;;;;2.07;100.00;98966.94;5089556;28;20299;-64
2023/12/12 05:32:02;;;;;;;5.60;4.60;;;;;;;2.18;100.00;98974.88;5089334;28;20213;-64
2023/12/12 05:34:29;;;;;;;3.80;3.00;;;;;;;1.93;100.00;98967.47;5089664;28;20205;-64
2023/12/12 05:36:56;;;;;;;7.87;4.03;;;;;;;1.79;100.00;98965.47;5088200;28;20202;-64
2023/12/12 05:39:23;;;;;;;4.37;3.50;;;;;;;2.01;100.00;98968.00;5088018;28;20236;-64
2023/12/12 05:41:49;;;;;;;8.70;4.00;;;;;;;2.15;100.00;98962.38;5088928;28;20194;-64
2023/12/12 05:44:16;;;;;;;8.13;3.20;;;;;;;2.19;100.00;98966.44;5089270;28;20590;-64
2023/12/12 05:46:43;;;;;;;10.43;4.20;;;;;;;2.25;100.00;98966.19;5089434;28;20205;-64
2023/12/12 05:49:11;;;;;;;7.57;3.67;;;;;;;2.26;100.00;98972.88;5089095;28;20197;-64
2023/12/12 05:51:39;;;;;;;7.30;3.73;;;;;;;2.19;100.00;98966.44;5089313;28;20198;-64
2023/12/12 05:54:06;;;;;;;3.80;2.93;;;;;;;2.25;100.00;98961.16;5089166;28;20202;-64
2023/12/12 05:56:33;;;;;;;5.77;3.07;;;;;;;2.25;100.00;98968.72;5089263;28;20221;-64
2023/12/12 05:59:01;;;;;;;8.17;3.97;;;;;;;2.29;100.00;98962.66;5088924;28;20229;-64
2023/12/12 06:01:27;;;;;;;4.40;2.70;;;;;;;2.32;100.00;98972.63;5089001;28;20206;-64
2023/12/12 06:03:54;;;;;;;9.17;3.37;;;;;;;2.31;100.00;98965.13;5089222;28;20205;-64
2023/12/12 06:06:22;;;;;;;8.70;3.07;;;;;;;2.39;100.00;98978.25;5089317;28;20255;-64
2023/12/12 06:08:51;;;;;;;3.73;2.70;;;;;;;2.48;100.00;98987.97;5088864;28;20581;-64
2023/12/12 06:11:21;;;;;;;3.50;2.97;;;;;;;2.45;100.00;98983.88;5088990;28;20604;-64
2023/12/12 06:13:47;;;;;;;5.10;4.47;;;;;;;2.49;100.00;98985.38;5088667;28;20603;-64
2023/12/12 06:16:14;;;;;;;13.97;4.10;;;;;;;2.48;100.00;98983.75;5088810;28;20197;-64
2023/12/12 06:18:41;;;;;;;8.77;4.23;;;;;;;2.50;100.00;98981.13;5088785;28;20229;-64
2023/12/12 06:21:08;;;;;;;4.47;3.23;;;;;;;2.60;100.00;98986.66;5088640;28;20201;-64
2023/12/12 06:23:36;;;;;;;6.77;4.33;;;;;;;2.59;100.00;98979.94;5088586;28;20206;-64
2023/12/12 06:26:03;;;;;;;3.20;2.13;;;;;;;2.64;100.00;98983.09;5088693;28;20202;-64
2023/12/12 06:28:30;;;;;;;5.23;3.13;;;;;;;2.57;100.00;98986.78;5088645;28;20259;-64
2023/12/12 06:30:57;;;;;;;3.93;2.70;;;;;;;2.64;100.00;98983.09;5088377;28;20198;-64
2023/12/12 06:33:27;;;;;;;3.43;2.43;;;;;;;2.72;100.00;98991.19;5088545;28;20202;-64
2023/12/12 06:35:54;;;;;;;3.30;2.43;;;;;;;2.80;100.00;98994.22;5088918;28;20296;-64
2023/12/12 06:38:21;;;;;;;4.33;2.63;;;;;;;2.74;100.00;98999.50;5088386;28;20736;-64
2023/12/12 06:40:49;;;;;;;9.63;4.27;;;;;;;2.74;100.00;98989.41;5088865;28;20614;-64
2023/12/12 06:43:16;;;;;;;6.83;2.83;;;;;;;2.62;100.00;98994.97;5088293;28;20205;-64
2023/12/12 06:45:43;;;;;;;4.07;2.33;;;;;;;2.58;100.00;98993.44;5087052;28;20201;-64
2023/12/12 06:48:09;;;;;;;6.03;2.90;;;;;;;2.46;100.00;98988.00;5088347;28;20198;-64
2023/12/12 06:50:36;;;;;;;9.13;3.63;;;;;;;2.41;100.00;98999.19;5088757;28;20209;-64
2023/12/12 06:53:03;;;;;;;3.03;2.63;;;;;;;2.52;100.00;99003.78;5088402;28;20670;-64
2023/12/12 06:55:30;;;;;;;5.90;3.03;;;;;;;2.41;100.00;99001.69;5088581;28;20197;-64
2023/12/12 06:57:59;;;;;;;5.60;4.00;;;;;;;2.51;100.00;99002.16;5088186;28;20209;-64
2023/12/12 07:00:25;;;;;;;6.10;2.97;;;;;;;2.46;100.00;99008.19;5088263;28;20208;-64
2023/12/12 07:02:52;;;;;;;5.07;3.10;;;;;;;2.58;100.00;98998.50;5088266;28;20375;-64
2023/12/12 07:05:19;;;;;;;5.70;3.17;;;;;;;2.72;100.00;99001.28;5087986;28;20674;-65
2023/12/12 07:07:47;;;;;;;5.47;3.00;;;;;;;2.88;100.00;99001.44;5088296;28;20637;-64
2023/12/12 07:10:16;;;;;;;4.90;3.30;;;;;;;2.94;100.00;98996.97;5088015;28;20255;-64
2023/12/12 07:12:44;;;;;;;5.03;3.03;;;;;;;3.20;100.00;99007.66;5088505;28;20281;-64
2023/12/12 07:15:13;;;;;;;6.57;3.40;;;;;;;3.39;100.00;99012.72;5088157;28;20194;-64
2023/12/12 07:17:40;;;;;;;7.63;4.20;;;;;;;3.59;100.00;99019.44;5088230;28;20245;-64
2023/12/12 07:20:11;;;;;;;7.77;3.57;;;;;;;3.83;100.00;99018.31;5088109;28;20225;-64
2023/12/12 07:22:38;;;;;;;6.87;3.73;;;;;;;3.91;100.00;99019.69;5088268;28;20206;-63
2023/12/12 07:25:06;;;;;;;6.43;2.80;;;;;;;3.93;100.00;99028.84;5088722;28;20229;-63
2023/12/12 07:27:32;;;;;;;9.13;4.87;;;;;;;4.04;100.00;99030.84;5088219;28;20837;-63
2023/12/12 07:29:59;;;;;;;4.47;3.10;;;;;;;3.97;100.00;99030.31;5088022;28;20202;-64
2023/12/12 07:32:28;;;;;;;9.40;3.23;;;;;;;3.98;100.00;99026.06;5087783;28;20201;-63
2023/12/12 07:34:55;;;;;;;6.90;3.53;;;;;;;3.97;100.00;99030.31;5088066;28;20214;-63
2023/12/12 07:37:21;;;;;;;13.90;4.47;;;;;;;4.02;100.00;99030.13;5088019;28;20255;-64
2023/12/12 07:39:48;;;;;;;5.00;3.23;;;;;;;4.02;100.00;99032.66;5087831;28;20753;-64
2023/12/12 07:42:15;;;;;;;4.40;3.37;;;;;;;4.16;100.00;99030.31;5088282;28;20240;-63
2023/12/12 07:44:42;;;;;;;5.93;3.00;;;;;;;4.23;100.00;99026.56;5088007;28;20225;-64
2023/12/12 07:47:09;;;;;;;10.03;3.77;;;;;;;4.28;100.00;99023.84;5091517;28;20682;-64
2023/12/12 07:49:37;;;;;;;8.37;4.20;;;;;;;4.36;100.00;99018.41;5091225;28;20200;-64
2023/12/12 07:52:05;;;;;;;5.93;3.10;;;;;;;4.53;100.00;99026.00;5091726;28;20232;-64
2023/12/12 07:54:31;;;;;;;8.63;4.93;;;;;;;4.76;100.00;99025.69;5091439;28;20209;-64
2023/12/12 07:56:58;;;;;;;9.40;4.43;;;;;;;4.70;100.00;99028.53;5091614;28;20205;-63
2023/12/12 07:59:25;;;;;;;6.73;4.53;;;;;;;4.82;100.00;99034.69;5091120;28;20233;-64
2023/12/12 08:01:52;;;;;;;6.90;4.30;;;;;;;4.89;100.00;99040.31;5091273;28;20198;-64
2023/12/12 08:04:18;;;;;;;6.03;4.43;;;;;;;4.98;100.00;99044.91;5091130;28;20577;-64
2023/12/12 08:06:47;;;;;;;8.80;4.17;;;;;;;4.98;100.00;99047.44;5091431;28;20197;-64
2023/12/12 08:09:13;;;;;;;8.67;4.70;;;;;;;4.93;100.00;99046.84;5091109;28;20388;-64
2023/12/12 08:11:40;;;;;;;9.73;4.00;;;;;;;4.78;100.00;99047.59;5091241;28;20594;-64
2023/12/12 08:14:07;;;;;;;7.93;4.87;;;;;;;4.81;100.00;99042.41;5091272;28;20280;-64
2023/12/12 08:16:34;;;;;;;5.43;3.13;;;;;;;4.83;100.00;99050.72;5091147;28;20710;-64
2023/12/12 08:19:01;;;;;;;8.80;3.70;;;;;;;4.79;100.00;99044.97;5091151;28;20229;-64
2023/12/12 08:21:28;;;;;;;5.67;3.00;;;;;;;4.78;100.00;99052.69;5091049;28;20267;-64
2023/12/12 08:23:56;;;;;;;7.10;4.30;;;;;;;4.70;100.00;99048.78;5090782;28;20202;-64
2023/12/12 08:26:23;;;;;;;6.23;3.70;;;;;;;4.69;100.00;99043.81;5090902;28;20198;-64
2023/12/12 08:28:50;;;;;;;5.03;3.83;;;;;;;4.69;100.00;99034.50;5090825;28;20282;-63
2023/12/12 08:31:17;;;;;;;7.60;3.67;;;;;;;4.74;100.00;99037.63;5090873;28;20247;-65
2023/12/12 08:33:43;;;;;;;11.33;4.83;;;;;;;4.72;100.00;99047.00;5090909;28;20202;-64
2023/12/12 08:36:11;;;;;;;7.73;3.87;;;;;;;4.76;100.00;99045.13;5091105;28;20212;-64
2023/12/12 08:38:38;;;;;;;9.80;4.57;;;;;;;4.93;100.00;99049.38;5090585;28;20251;-64
2023/12/12 08:41:06;;;;;;;8.57;4.17;;;;;;;4.86;100.00;99041.28;5090680;28;20268;-64
2023/12/12 08:43:33;;;;;;;7.20;3.90;;;;;;;5.07;100.00;99049.50;5090416;28;20666;-64
2023/12/12 08:46:02;;;;;;;6.73;3.83;;;;;;;5.18;100.00;99037.13;5090386;28;20644;-64
2023/12/12 08:48:28;;;;;;;8.00;3.83;;;;;;;5.21;100.00;99034.44;5090194;28;20628;-64
2023/12/12 08:50:55;;;;;;;9.47;5.17;;;;;;;5.29;100.00;99038.28;5089504;28;20194;-64
2023/12/12 08:53:26;;;;;;;6.73;3.90;;;;;;;5.46;100.00;99040.75;5089258;28;20194;-65
2023/12/12 08:55:54;;;;;;;7.67;4.27;;;;;;;5.60;100.00;99045.94;5089965;28;20228;-64
2023/12/12 08:58:22;;;;;;;9.73;4.87;;;;;;;5.77;100.00;99039.16;5090310;28;20201;-64
2023/12/12 09:00:49;;;;;;;6.97;4.83;;;;;;;5.96;100.00;99042.34;5090108;28;20265;-64
2023/12/12 09:03:16;;;;;;;6.53;3.83;;;;;;;6.09;100.00;99034.91;5090129;28;20205;-64
2023/12/12 09:05:43;;;;;;;7.80;4.87;;;;;;;6.10;100.00;99026.38;5090204;28;20206;-64
2023/12/12 09:08:10;;;;;;;10.23;4.60;;;;;;;6.17;100.00;99021.78;5090184;28;20209;-63
2023/12/12 09:10:37;;;;;;;8.53;5.37;;;;;;;6.17;100.00;99029.41;5090166;28;20205;-64
2023/12/12 09:13:04;;;;;;;6.00;4.33;;;;;;;6.23;100.00;99021.47;5089993;28;20695;-64
2023/12/12 09:15:33;;;;;;;10.17;5.17;;;;;;;6.00;100.00;99015.13;5089758;28;20201;-64
2023/12/12 09:18:00;;;;;;;7.33;4.27;;;;;;;6.01;100.00;99017.56;5090030;28;20213;-64
2023/12/12 09:20:27;;;;;;;6.20;3.97;;;;;;;6.18;100.00;99013.28;5089770;28;20664;-64
2023/12/12 09:22:53;;;;;;;8.17;4.63;;;;;;;6.74;100.00;99016.88;5089947;28;20209;-63
2023/12/12 09:25:20;;;;;;;9.53;4.07;;;;;;;7.13;100.00;99018.81;5089566;28;20667;-63
2023/12/12 09:27:47;;;;;;;12.20;6.90;;;;;;;7.64;100.00;99028.50;5089726;28;20202;-63
2023/12/12 09:30:14;;;;;;;7.80;5.00;;;;;;;8.00;100.00;99029.66;5089419;28;20207;-63
2023/12/12 09:32:42;;;;;;;7.90;5.37;;;;;;;8.42;100.00;99030.47;5089613;28;20225;-63
2023/12/12 09:35:09;;;;;;;12.17;5.43;;;;;;;8.80;100.00;99046.63;5089558;28;20613;-63
2023/12/12 09:37:36;;;;;;;10.77;6.07;;;;;;;9.16;100.00;99042.56;5089448;28;20697;-63
2023/12/12 09:40:03;;;;;;;13.37;6.47;;;;;;;9.29;100.00;99035.69;5089220;28;20241;-63
2023/12/12 09:42:34;;;;;;;11.00;5.63;;;;;;;9.42;100.00;99027.22;5089256;28;20197;-63
2023/12/12 09:45:04;;;;;;;13.30;5.23;;;;;;;9.78;100.00;99036.63;5089361;28;20206;-63
2023/12/12 09:47:31;;;;;;;13.80;6.53;;;;;;;10.12;100.00;99047.84;5089809;28;20225;-63
2023/12/12 09:50:00;;;;;;;10.73;6.40;;;;;;;10.39;100.00;99041.72;5088714;28;20209;-63
2023/12/12 09:52:30;;;;;;;12.97;6.53;;;;;;;10.80;100.00;99048.09;5089312;28;20285;-63
2023/12/12 09:54:59;;;;;;;15.37;7.07;;;;;;;10.91;100.00;99045.56;5089173;28;20691;-63
2023/12/12 09:57:28;;;;;;;14.33;7.20;;;;;;;11.44;100.00;99053.50;5089294;28;20230;-63
2023/12/12 09:59:55;;;;;;;12.87;6.50;;;;;;;11.62;100.00;99055.59;5088941;28;20742;-63
2023/12/12 10:02:24;;;;;;;13.20;6.87;;;;;;;12.05;99.11;99059.97;5089015;28;20221;-63
2023/12/12 10:04:52;;;;;;;10.70;6.23;;;;;;;12.52;98.85;99055.38;5088911;28;20206;-63
2023/12/12 10:07:24;;;;;;;12.03;6.07;;;;;;;12.87;94.27;99045.59;5088669;28;20209;-63
2023/12/12 10:09:51;;;;;;;11.47;5.03;;;;;;;13.15;91.59;99043.31;5088736;28;20210;-63
2023/12/12 10:12:18;;;;;;;16.07;5.53;;;;;;;12.93;87.24;99043.47;5088166;28;20614;-63
2023/12/12 10:14:47;;;;;;;10.10;4.80;;;;;;;12.82;90.49;99037.47;5087713;28;20208;-63
2023/12/12 10:17:14;;;;;;;13.20;5.10;;;;;;;12.99;87.44;99042.97;5087663;28;20201;-64
2023/12/12 10:19:41;;;;;;;9.60;4.93;;;;;;;13.24;85.57;99045.13;5088870;28;20236;-63
2023/12/12 10:22:09;;;;;;;8.17;4.20;;;;;;;13.51;83.59;99041.19;5088821;28;20205;-63
2023/12/12 10:24:40;;;;;;;8.10;4.10;;;;;;;13.31;83.38;99043.69;5088456;28;20217;-63
2023/12/12 10:27:08;;;;;;;11.90;5.07;;;;;;;13.46;86.16;99035.63;5088550;28;20198;-63
2023/12/12 10:29:35;;;;;;;10.30;5.07;;;;;;;13.45;82.90;99039.16;5088522;28;20235;-63
2023/12/12 10:32:02;;;;;;;7.20;3.67;;;;;;;13.93;84.28;99033.28;5088694;28;20666;-63
2023/12/12 10:34:30;;;;;;;11.33;5.10;;;;;;;14.17;82.49;99030.34;5088576;28;20250;-63
2023/12/12 10:37:00;;;;;;;11.00;4.73;;;;;;;13.35;80.47;99029.66;5088650;28;20293;-63
2023/12/12 10:39:31;;;;;;;14.27;5.47;;;;;;;13.47;84.63;99024.44;5088601;28;20230;-63
2023/12/12 10:41:59;;;;;;;9.30;4.67;;;;;;;12.99;85.57;99033.50;5088520;28;20271;-63
2023/12/12 10:44:32;;;;;;;10.40;4.70;;;;;;;12.86;86.29;99025.22;5088505;28;20235;-63
2023/12/12 10:47:00;;;;;;;10.90;4.90;;;;;;;12.90;85.66;99024.81;5089050;28;20190;-63
2023/12/12 10:49:32;;;;;;;9.33;4.53;;;;;;;13.36;83.11;99021.00;5088600;28;20306;-63
2023/12/12 10:52:03;;;;;;;9.57;3.93;;;;;;;13.45;85.99;99024.53;5088574;28;20209;-64
2023/12/12 10:54:33;;;;;;;7.57;4.03;;;;;;;13.44;81.89;99024.66;5088361;28;20205;-63
2023/12/12 10:57:02;;;;;;;6.60;3.83;;;;;;;12.85;84.47;99034.63;5088746;28;20200;-62
2023/12/12 10:59:31;;;;;;;7.83;4.10;;;;;;;12.92;85.02;99022.13;5088457;28;20335;-62
2023/12/12 11:01:58;;;;;;;7.57;3.97;;;;;;;12.82;84.03;99022.06;5088294;28;20254;-63
2023/12/12 11:04:25;;;;;;;8.70;4.57;;;;;;;12.69;83.79;99031.72;5088241;28;20202;-63
2023/12/12 11:06:53;;;;;;;9.27;4.80;;;;;;;12.68;84.66;99030.09;5088288;28;20224;-62
2023/12/12 11:09:20;;;;;;;9.30;4.57;;;;;;;12.75;83.61;99031.22;5088362;28;20621;-63
2023/12/12 11:11:49;;;;;;;8.87;4.80;;;;;;;12.31;84.71;99027.94;5088349;28;20204;-63
2023/12/12 11:14:19;;;;;;;9.57;4.83;;;;;;;12.49;86.88;99035.09;5088056;28;20217;-63
2023/12/12 11:16:47;;;;;;;8.73;4.43;;;;;;;12.50;88.37;99036.72;5088453;28;20220;-63
2023/12/12 11:19:17;;;;;;;10.80;5.00;;;;;;;12.53;88.50;99026.22;5089043;28;20211;-63
2023/12/12 11:21:45;;;;;;;10.77;5.27;;;;;;;12.70;88.88;99015.38;5092254;28;20232;-63
2023/12/12 11:24:12;;;;;;;8.73;4.40;;;;;;;12.71;88.21;99017.00;5092373;28;20215;-63
2023/12/12 11:26:41;;;;;;;6.43;4.30;;;;;;;12.26;88.40;99008.75;5092076;28;20201;-63
2023/12/12 11:29:08;;;;;;;9.00;4.50;;;;;;;11.37;92.76;99001.13;5091939;28;20661;-63
2023/12/12 11:31:36;;;;;;;7.33;4.60;;;;;;;11.21;96.59;98998.94;5092306;28;20209;-63